Terminal Aerodrome Forecast
Issued by NWS

Home | Current Version | Previous Version | Text Only | Print | Product List | Glossary On
Versions: 1 2 3 4 5 6 7 8 9 10 11 12 13 14 15 16 17 18 19 20 21 22 23 24 25 26 27 28 29 30 31 32 33 34 35 36 37 38 39 40 41 42 43 44 45 46 47 48 49 50
000
FTAK31 PAFA 210210 AAA
TAFAQT
TAF AMD
PAQT 210210Z 2102/2124 08034G43KT 1SM -SN BR BKN007 OVC015
     FM210400 08028G37KT 1/2SM BLSN FZFG BKN007 OVC020
     FM210900 08022KT 2SM BLSN SCT007 BKN025=

USA.gov is the U.S. government's official web portal to all federal, state and local government web resources and services.